sensor_id;sensor_type;location;lat;lon;timestamp;P1;durP1;ratioP1;P2;durP2;ratioP2
28551;SDS011;15752;49.560;8.708;2023-05-23T00:01:42;11.70;;;9.90;;
28551;SDS011;15752;49.560;8.708;2023-05-23T00:04:11;10.52;;;9.52;;
28551;SDS011;15752;49.560;8.708;2023-05-23T00:06:42;9.55;;;8.57;;
28551;SDS011;15752;49.560;8.708;2023-05-23T00:09:12;11.20;;;9.63;;
28551;SDS011;15752;49.560;8.708;2023-05-23T00:11:41;11.50;;;10.40;;
28551;SDS011;15752;49.560;8.708;2023-05-23T00:14:11;11.55;;;9.07;;
28551;SDS011;15752;49.560;8.708;2023-05-23T00:16:41;10.10;;;9.05;;
28551;SDS011;15752;49.560;8.708;2023-05-23T00:19:11;10.18;;;9.18;;
28551;SDS011;15752;49.560;8.708;2023-05-23T00:21:41;10.88;;;9.30;;
28551;SDS011;15752;49.560;8.708;2023-05-23T00:24:13;13.70;;;11.10;;
28551;SDS011;15752;49.560;8.708;2023-05-23T00:26:44;14.23;;;10.23;;
28551;SDS011;15752;49.560;8.708;2023-05-23T00:29:14;14.07;;;11.50;;
28551;SDS011;15752;49.560;8.708;2023-05-23T00:31:43;13.02;;;11.68;;
28551;SDS011;15752;49.560;8.708;2023-05-23T00:34:13;14.93;;;11.63;;
28551;SDS011;15752;49.560;8.708;2023-05-23T00:36:43;15.35;;;12.40;;
28551;SDS011;15752;49.560;8.708;2023-05-23T00:39:13;15.88;;;13.13;;
28551;SDS011;15752;49.560;8.708;2023-05-23T00:41:47;14.88;;;13.23;;
28551;SDS011;15752;49.560;8.708;2023-05-23T00:47:14;18.05;;;14.70;;
28551;SDS011;15752;49.560;8.708;2023-05-23T00:49:42;18.45;;;13.50;;
28551;SDS011;15752;49.560;8.708;2023-05-23T00:52:11;15.60;;;13.82;;
28551;SDS011;15752;49.560;8.708;2023-05-23T00:54:41;13.55;;;12.00;;
28551;SDS011;15752;49.560;8.708;2023-05-23T00:57:09;15.50;;;12.63;;
28551;SDS011;15752;49.560;8.708;2023-05-23T00:59:38;13.52;;;11.73;;
28551;SDS011;15752;49.560;8.708;2023-05-23T01:02:08;11.75;;;10.50;;
28551;SDS011;15752;49.560;8.708;2023-05-23T01:04:39;12.85;;;10.55;;
28551;SDS011;15752;49.560;8.708;2023-05-23T01:07:08;12.88;;;11.50;;
28551;SDS011;15752;49.560;8.708;2023-05-23T01:09:37;13.23;;;10.70;;
28551;SDS011;15752;49.560;8.708;2023-05-23T01:12:09;12.13;;;10.85;;
28551;SDS011;15752;49.560;8.708;2023-05-23T01:15:00;14.55;;;10.82;;
28551;SDS011;15752;49.560;8.708;2023-05-23T01:17:38;12.52;;;11.23;;
28551;SDS011;15752;49.560;8.708;2023-05-23T01:20:14;16.17;;;11.43;;
28551;SDS011;15752;49.560;8.708;2023-05-23T01:26:17;12.93;;;11.57;;
28551;SDS011;15752;49.560;8.708;2023-05-23T01:29:08;12.20;;;10.95;;
28551;SDS011;15752;49.560;8.708;2023-05-23T01:31:42;12.07;;;10.88;;
28551;SDS011;15752;49.560;8.708;2023-05-23T01:34:12;13.20;;;11.80;;
28551;SDS011;15752;49.560;8.708;2023-05-23T01:36:42;14.88;;;11.50;;
28551;SDS011;15752;49.560;8.708;2023-05-23T01:39:12;13.10;;;11.13;;
28551;SDS011;15752;49.560;8.708;2023-05-23T01:41:40;16.05;;;13.07;;
28551;SDS011;15752;49.560;8.708;2023-05-23T01:44:10;14.23;;;12.73;;
28551;SDS011;15752;49.560;8.708;2023-05-23T01:46:39;17.33;;;14.75;;
28551;SDS011;15752;49.560;8.708;2023-05-23T01:49:11;24.75;;;17.60;;
28551;SDS011;15752;49.560;8.708;2023-05-23T01:51:41;18.02;;;15.15;;
28551;SDS011;15752;49.560;8.708;2023-05-23T01:54:10;17.67;;;14.90;;
28551;SDS011;15752;49.560;8.708;2023-05-23T01:56:42;19.08;;;15.50;;
28551;SDS011;15752;49.560;8.708;2023-05-23T01:59:13;17.92;;;14.75;;
28551;SDS011;15752;49.560;8.708;2023-05-23T02:01:42;22.42;;;15.98;;
28551;SDS011;15752;49.560;8.708;2023-05-23T02:04:12;20.35;;;16.30;;
28551;SDS011;15752;49.560;8.708;2023-05-23T02:06:41;17.40;;;15.05;;
28551;SDS011;15752;49.560;8.708;2023-05-23T02:09:11;20.88;;;15.32;;
28551;SDS011;15752;49.560;8.708;2023-05-23T02:11:40;19.17;;;15.35;;
28551;SDS011;15752;49.560;8.708;2023-05-23T02:14:09;16.80;;;14.65;;
28551;SDS011;15752;49.560;8.708;2023-05-23T02:16:39;16.67;;;13.95;;
28551;SDS011;15752;49.560;8.708;2023-05-23T02:19:08;17.80;;;14.70;;
28551;SDS011;15752;49.560;8.708;2023-05-23T02:21:37;16.30;;;13.80;;
28551;SDS011;15752;49.560;8.708;2023-05-23T02:24:06;17.20;;;13.98;;
28551;SDS011;15752;49.560;8.708;2023-05-23T02:26:34;18.05;;;15.00;;
28551;SDS011;15752;49.560;8.708;2023-05-23T02:29:02;15.88;;;13.60;;
28551;SDS011;15752;49.560;8.708;2023-05-23T02:31:31;19.20;;;15.15;;
28551;SDS011;15752;49.560;8.708;2023-05-23T02:34:01;19.67;;;15.30;;
28551;SDS011;15752;49.560;8.708;2023-05-23T02:36:29;15.13;;;13.52;;
28551;SDS011;15752;49.560;8.708;2023-05-23T02:38:59;18.02;;;14.55;;
28551;SDS011;15752;49.560;8.708;2023-05-23T02:41:28;18.70;;;15.88;;
28551;SDS011;15752;49.560;8.708;2023-05-23T02:43:57;16.02;;;13.75;;
28551;SDS011;15752;49.560;8.708;2023-05-23T02:46:25;15.90;;;13.82;;
28551;SDS011;15752;49.560;8.708;2023-05-23T02:48:54;15.63;;;13.45;;
28551;SDS011;15752;49.560;8.708;2023-05-23T02:51:24;20.30;;;15.55;;
28551;SDS011;15752;49.560;8.708;2023-05-23T02:53:52;16.25;;;13.38;;
28551;SDS011;15752;49.560;8.708;2023-05-23T02:56:21;17.50;;;14.18;;
28551;SDS011;15752;49.560;8.708;2023-05-23T02:58:49;15.98;;;14.27;;
28551;SDS011;15752;49.560;8.708;2023-05-23T03:01:18;17.05;;;14.75;;
28551;SDS011;15752;49.560;8.708;2023-05-23T03:03:47;15.35;;;13.70;;
28551;SDS011;15752;49.560;8.708;2023-05-23T03:06:16;17.50;;;13.38;;
28551;SDS011;15752;49.560;8.708;2023-05-23T03:08:46;16.10;;;14.40;;
28551;SDS011;15752;49.560;8.708;2023-05-23T03:11:14;17.40;;;14.75;;
28551;SDS011;15752;49.560;8.708;2023-05-23T03:13:43;20.17;;;16.30;;
28551;SDS011;15752;49.560;8.708;2023-05-23T03:16:12;19.73;;;15.27;;
28551;SDS011;15752;49.560;8.708;2023-05-23T03:18:40;20.15;;;14.70;;
28551;SDS011;15752;49.560;8.708;2023-05-23T03:21:09;17.13;;;14.82;;
28551;SDS011;15752;49.560;8.708;2023-05-23T03:23:38;16.65;;;14.48;;
28551;SDS011;15752;49.560;8.708;2023-05-23T03:26:08;21.05;;;14.43;;
28551;SDS011;15752;49.560;8.708;2023-05-23T03:28:37;18.02;;;14.82;;
28551;SDS011;15752;49.560;8.708;2023-05-23T03:31:06;17.73;;;15.05;;
28551;SDS011;15752;49.560;8.708;2023-05-23T03:33:35;16.63;;;14.75;;
28551;SDS011;15752;49.560;8.708;2023-05-23T03:36:06;17.35;;;15.45;;
28551;SDS011;15752;49.560;8.708;2023-05-23T03:38:34;14.18;;;12.70;;
28551;SDS011;15752;49.560;8.708;2023-05-23T03:41:03;15.95;;;13.98;;
28551;SDS011;15752;49.560;8.708;2023-05-23T03:43:33;16.50;;;14.00;;
28551;SDS011;15752;49.560;8.708;2023-05-23T03:46:02;15.13;;;13.48;;
28551;SDS011;15752;49.560;8.708;2023-05-23T03:48:30;18.52;;;14.23;;
28551;SDS011;15752;49.560;8.708;2023-05-23T03:50:59;14.50;;;12.93;;
28551;SDS011;15752;49.560;8.708;2023-05-23T03:53:29;16.88;;;14.18;;
28551;SDS011;15752;49.560;8.708;2023-05-23T03:55:58;15.13;;;13.30;;
28551;SDS011;15752;49.560;8.708;2023-05-23T03:58:28;18.05;;;14.68;;
28551;SDS011;15752;49.560;8.708;2023-05-23T04:01:03;18.13;;;15.38;;
28551;SDS011;15752;49.560;8.708;2023-05-23T04:03:31;18.70;;;15.55;;
28551;SDS011;15752;49.560;8.708;2023-05-23T04:06:02;19.17;;;16.20;;
28551;SDS011;15752;49.560;8.708;2023-05-23T04:08:32;22.10;;;18.60;;
28551;SDS011;15752;49.560;8.708;2023-05-23T04:11:01;17.40;;;15.43;;
28551;SDS011;15752;49.560;8.708;2023-05-23T04:13:34;18.20;;;16.05;;
28551;SDS011;15752;49.560;8.708;2023-05-23T04:16:04;22.20;;;17.38;;
28551;SDS011;15752;49.560;8.708;2023-05-23T04:18:33;22.30;;;17.95;;
28551;SDS011;15752;49.560;8.708;2023-05-23T04:21:06;21.98;;;18.48;;
28551;SDS011;15752;49.560;8.708;2023-05-23T04:23:41;20.52;;;18.00;;
28551;SDS011;15752;49.560;8.708;2023-05-23T04:26:10;19.83;;;16.15;;
28551;SDS011;15752;49.560;8.708;2023-05-23T04:28:44;19.15;;;17.15;;
28551;SDS011;15752;49.560;8.708;2023-05-23T04:31:15;18.65;;;16.33;;
28551;SDS011;15752;49.560;8.708;2023-05-23T04:33:44;17.55;;;15.75;;
28551;SDS011;15752;49.560;8.708;2023-05-23T04:36:14;17.60;;;15.48;;
28551;SDS011;15752;49.560;8.708;2023-05-23T04:38:48;17.40;;;15.45;;
28551;SDS011;15752;49.560;8.708;2023-05-23T04:41:17;18.42;;;15.05;;
28551;SDS011;15752;49.560;8.708;2023-05-23T04:44:09;16.25;;;14.55;;
28551;SDS011;15752;49.560;8.708;2023-05-23T04:46:43;16.00;;;14.02;;
28551;SDS011;15752;49.560;8.708;2023-05-23T04:49:18;15.38;;;13.75;;
28551;SDS011;15752;49.560;8.708;2023-05-23T04:51:48;15.43;;;13.82;;
28551;SDS011;15752;49.560;8.708;2023-05-23T04:54:21;14.90;;;13.30;;
28551;SDS011;15752;49.560;8.708;2023-05-23T04:56:51;15.10;;;13.55;;
28551;SDS011;15752;49.560;8.708;2023-05-23T04:59:21;17.40;;;15.60;;
28551;SDS011;15752;49.560;8.708;2023-05-23T05:01:51;15.88;;;13.60;;
28551;SDS011;15752;49.560;8.708;2023-05-23T05:04:20;14.05;;;12.57;;
28551;SDS011;15752;49.560;8.708;2023-05-23T05:06:49;14.70;;;12.70;;
28551;SDS011;15752;49.560;8.708;2023-05-23T05:09:18;14.15;;;12.48;;
28551;SDS011;15752;49.560;8.708;2023-05-23T05:11:48;14.88;;;13.32;;
28551;SDS011;15752;49.560;8.708;2023-05-23T05:14:18;12.40;;;11.10;;
28551;SDS011;15752;49.560;8.708;2023-05-23T05:16:47;13.18;;;11.85;;
28551;SDS011;15752;49.560;8.708;2023-05-23T05:19:18;12.52;;;11.05;;
28551;SDS011;15752;49.560;8.708;2023-05-23T05:21:46;12.80;;;11.52;;
28551;SDS011;15752;49.560;8.708;2023-05-23T05:24:15;12.15;;;10.77;;
28551;SDS011;15752;49.560;8.708;2023-05-23T05:26:47;13.13;;;10.27;;
28551;SDS011;15752;49.560;8.708;2023-05-23T05:29:15;12.02;;;10.75;;
28551;SDS011;15752;49.560;8.708;2023-05-23T05:31:44;12.30;;;11.07;;
28551;SDS011;15752;49.560;8.708;2023-05-23T05:34:12;12.18;;;10.52;;
28551;SDS011;15752;49.560;8.708;2023-05-23T05:36:44;15.30;;;11.32;;
28551;SDS011;15752;49.560;8.708;2023-05-23T05:39:15;13.05;;;11.02;;
28551;SDS011;15752;49.560;8.708;2023-05-23T05:41:44;9.57;;;8.65;;
28551;SDS011;15752;49.560;8.708;2023-05-23T05:44:15;13.05;;;10.63;;
28551;SDS011;15752;49.560;8.708;2023-05-23T05:46:44;12.02;;;10.82;;
28551;SDS011;15752;49.560;8.708;2023-05-23T05:49:14;10.93;;;9.75;;
28551;SDS011;15752;49.560;8.708;2023-05-23T05:51:46;12.45;;;11.07;;
28551;SDS011;15752;49.560;8.708;2023-05-23T05:54:15;11.85;;;10.65;;
28551;SDS011;15752;49.560;8.708;2023-05-23T05:56:45;13.20;;;11.35;;
28551;SDS011;15752;49.560;8.708;2023-05-23T05:59:14;10.93;;;9.82;;
28551;SDS011;15752;49.560;8.708;2023-05-23T06:01:43;11.80;;;10.60;;
28551;SDS011;15752;49.560;8.708;2023-05-23T06:04:11;12.15;;;10.85;;
28551;SDS011;15752;49.560;8.708;2023-05-23T06:06:41;12.40;;;11.10;;
28551;SDS011;15752;49.560;8.708;2023-05-23T06:09:11;11.80;;;10.70;;
28551;SDS011;15752;49.560;8.708;2023-05-23T06:11:39;14.60;;;11.23;;
28551;SDS011;15752;49.560;8.708;2023-05-23T06:14:08;12.07;;;10.95;;
28551;SDS011;15752;49.560;8.708;2023-05-23T06:16:41;12.68;;;11.38;;
28551;SDS011;15752;49.560;8.708;2023-05-23T06:19:10;13.43;;;12.07;;
28551;SDS011;15752;49.560;8.708;2023-05-23T06:21:39;12.23;;;11.02;;
28551;SDS011;15752;49.560;8.708;2023-05-23T06:24:10;12.80;;;11.48;;
28551;SDS011;15752;49.560;8.708;2023-05-23T06:26:40;12.07;;;10.82;;
28551;SDS011;15752;49.560;8.708;2023-05-23T06:29:08;12.20;;;10.98;;
28551;SDS011;15752;49.560;8.708;2023-05-23T06:31:36;12.30;;;11.10;;
28551;SDS011;15752;49.560;8.708;2023-05-23T06:34:05;13.48;;;12.07;;
28551;SDS011;15752;49.560;8.708;2023-05-23T06:36:33;12.30;;;10.98;;
28551;SDS011;15752;49.560;8.708;2023-05-23T06:39:02;13.88;;;12.43;;
28551;SDS011;15752;49.560;8.708;2023-05-23T06:41:33;13.38;;;11.93;;
28551;SDS011;15752;49.560;8.708;2023-05-23T06:44:01;13.10;;;11.70;;
28551;SDS011;15752;49.560;8.708;2023-05-23T06:46:30;13.02;;;11.63;;
28551;SDS011;15752;49.560;8.708;2023-05-23T06:49:00;11.45;;;10.35;;
28551;SDS011;15752;49.560;8.708;2023-05-23T06:51:41;12.27;;;11.05;;
28551;SDS011;15752;49.560;8.708;2023-05-23T06:54:10;10.98;;;9.88;;
28551;SDS011;15752;49.560;8.708;2023-05-23T06:56:41;11.52;;;10.43;;
28551;SDS011;15752;49.560;8.708;2023-05-23T06:59:10;10.50;;;9.50;;
28551;SDS011;15752;49.560;8.708;2023-05-23T07:01:39;11.30;;;10.20;;
28551;SDS011;15752;49.560;8.708;2023-05-23T07:04:08;13.25;;;8.95;;
28551;SDS011;15752;49.560;8.708;2023-05-23T07:06:38;10.88;;;9.18;;
28551;SDS011;15752;49.560;8.708;2023-05-23T07:09:06;9.52;;;8.60;;
28551;SDS011;15752;49.560;8.708;2023-05-23T07:11:38;10.02;;;9.00;;
28551;SDS011;15752;49.560;8.708;2023-05-23T07:14:09;9.88;;;8.68;;
28551;SDS011;15752;49.560;8.708;2023-05-23T07:16:40;9.60;;;8.52;;
28551;SDS011;15752;49.560;8.708;2023-05-23T07:19:09;9.23;;;8.32;;
28551;SDS011;15752;49.560;8.708;2023-05-23T07:21:49;8.95;;;8.10;;
28551;SDS011;15752;49.560;8.708;2023-05-23T07:24:18;10.75;;;8.73;;
28551;SDS011;15752;49.560;8.708;2023-05-23T07:26:50;9.18;;;8.38;;
28551;SDS011;15752;49.560;8.708;2023-05-23T07:29:19;8.70;;;7.90;;
28551;SDS011;15752;49.560;8.708;2023-05-23T07:31:52;8.23;;;7.50;;
28551;SDS011;15752;49.560;8.708;2023-05-23T07:34:21;8.25;;;7.45;;
28551;SDS011;15752;49.560;8.708;2023-05-23T07:36:53;7.75;;;7.05;;
28551;SDS011;15752;49.560;8.708;2023-05-23T07:39:24;8.18;;;7.43;;
28551;SDS011;15752;49.560;8.708;2023-05-23T07:41:56;8.15;;;7.40;;
28551;SDS011;15752;49.560;8.708;2023-05-23T07:44:25;8.07;;;7.38;;
28551;SDS011;15752;49.560;8.708;2023-05-23T07:46:54;8.63;;;7.82;;
28551;SDS011;15752;49.560;8.708;2023-05-23T07:49:24;9.50;;;7.90;;
28551;SDS011;15752;49.560;8.708;2023-05-23T07:51:53;8.75;;;7.63;;
28551;SDS011;15752;49.560;8.708;2023-05-23T07:54:22;7.60;;;7.00;;
28551;SDS011;15752;49.560;8.708;2023-05-23T07:56:54;7.88;;;7.18;;
28551;SDS011;15752;49.560;8.708;2023-05-23T07:59:24;7.68;;;6.97;;
28551;SDS011;15752;49.560;8.708;2023-05-23T08:01:53;6.45;;;5.90;;
28551;SDS011;15752;49.560;8.708;2023-05-23T08:04:24;8.20;;;7.40;;
28551;SDS011;15752;49.560;8.708;2023-05-23T08:06:53;6.78;;;6.18;;
28551;SDS011;15752;49.560;8.708;2023-05-23T08:09:30;7.18;;;6.45;;
28551;SDS011;15752;49.560;8.708;2023-05-23T08:12:00;6.85;;;6.30;;
28551;SDS011;15752;49.560;8.708;2023-05-23T08:14:29;7.32;;;6.63;;
28551;SDS011;15752;49.560;8.708;2023-05-23T08:17:22;6.32;;;5.72;;
28551;SDS011;15752;49.560;8.708;2023-05-23T08:19:51;6.90;;;6.00;;
28551;SDS011;15752;49.560;8.708;2023-05-23T08:22:19;5.85;;;5.35;;
28551;SDS011;15752;49.560;8.708;2023-05-23T08:24:48;5.95;;;5.35;;
28551;SDS011;15752;49.560;8.708;2023-05-23T08:27:18;6.28;;;5.68;;
28551;SDS011;15752;49.560;8.708;2023-05-23T08:29:51;6.30;;;5.70;;
28551;SDS011;15752;49.560;8.708;2023-05-23T08:32:21;5.93;;;5.43;;
28551;SDS011;15752;49.560;8.708;2023-05-23T08:34:50;6.15;;;5.55;;
28551;SDS011;15752;49.560;8.708;2023-05-23T08:37:19;6.57;;;5.57;;
28551;SDS011;15752;49.560;8.708;2023-05-23T08:39:49;6.03;;;5.53;;
28551;SDS011;15752;49.560;8.708;2023-05-23T08:42:41;5.60;;;5.10;;
28551;SDS011;15752;49.560;8.708;2023-05-23T08:45:12;5.35;;;4.95;;
28551;SDS011;15752;49.560;8.708;2023-05-23T08:47:42;6.13;;;5.53;;
28551;SDS011;15752;49.560;8.708;2023-05-23T08:50:13;5.50;;;5.10;;
28551;SDS011;15752;49.560;8.708;2023-05-23T08:52:49;5.30;;;4.90;;
28551;SDS011;15752;49.560;8.708;2023-05-23T08:55:23;5.28;;;4.80;;
28551;SDS011;15752;49.560;8.708;2023-05-23T08:57:56;5.63;;;5.22;;
28551;SDS011;15752;49.560;8.708;2023-05-23T09:00:36;6.25;;;5.68;;
28551;SDS011;15752;49.560;8.708;2023-05-23T09:03:05;7.00;;;6.40;;
28551;SDS011;15752;49.560;8.708;2023-05-23T09:05:48;6.18;;;5.57;;
28551;SDS011;15752;49.560;8.708;2023-05-23T09:08:18;5.05;;;4.65;;
28551;SDS011;15752;49.560;8.708;2023-05-23T09:10:49;7.38;;;5.32;;
28551;SDS011;15752;49.560;8.708;2023-05-23T09:13:21;4.93;;;4.43;;
28551;SDS011;15752;49.560;8.708;2023-05-23T09:15:55;4.97;;;4.55;;
28551;SDS011;15752;49.560;8.708;2023-05-23T09:18:35;4.70;;;4.30;;
28551;SDS011;15752;49.560;8.708;2023-05-23T09:21:06;5.00;;;4.60;;
28551;SDS011;15752;49.560;8.708;2023-05-23T09:23:42;4.43;;;4.07;;
28551;SDS011;15752;49.560;8.708;2023-05-23T09:26:11;6.43;;;4.47;;
28551;SDS011;15752;49.560;8.708;2023-05-23T09:28:41;4.63;;;4.22;;
28551;SDS011;15752;49.560;8.708;2023-05-23T09:31:13;4.25;;;3.95;;
28551;SDS011;15752;49.560;8.708;2023-05-23T09:33:42;4.28;;;3.90;;
28551;SDS011;15752;49.560;8.708;2023-05-23T09:36:14;3.90;;;3.60;;
28551;SDS011;15752;49.560;8.708;2023-05-23T09:38:45;4.22;;;3.80;;
28551;SDS011;15752;49.560;8.708;2023-05-23T09:41:15;4.18;;;3.78;;
28551;SDS011;15752;49.560;8.708;2023-05-23T09:43:51;4.05;;;3.75;;
28551;SDS011;15752;49.560;8.708;2023-05-23T09:46:21;4.15;;;3.75;;
28551;SDS011;15752;49.560;8.708;2023-05-23T09:48:55;4.30;;;3.90;;
28551;SDS011;15752;49.560;8.708;2023-05-23T09:51:25;4.65;;;4.25;;
28551;SDS011;15752;49.560;8.708;2023-05-23T09:53:54;3.90;;;3.60;;
28551;SDS011;15752;49.560;8.708;2023-05-23T09:56:23;4.10;;;3.55;;
28551;SDS011;15752;49.560;8.708;2023-05-23T09:58:55;3.80;;;3.40;;
28551;SDS011;15752;49.560;8.708;2023-05-23T10:01:27;4.28;;;3.60;;
28551;SDS011;15752;49.560;8.708;2023-05-23T10:03:58;4.72;;;3.38;;
28551;SDS011;15752;49.560;8.708;2023-05-23T10:06:28;3.72;;;3.20;;
28551;SDS011;15752;49.560;8.708;2023-05-23T10:09:06;3.45;;;3.15;;
28551;SDS011;15752;49.560;8.708;2023-05-23T10:15:07;3.13;;;2.92;;
28551;SDS011;15752;49.560;8.708;2023-05-23T10:17:39;3.08;;;2.88;;
28551;SDS011;15752;49.560;8.708;2023-05-23T10:20:31;3.50;;;3.00;;
28551;SDS011;15752;49.560;8.708;2023-05-23T10:23:01;3.22;;;2.92;;
28551;SDS011;15752;49.560;8.708;2023-05-23T10:25:30;3.45;;;2.92;;
28551;SDS011;15752;49.560;8.708;2023-05-23T10:28:01;3.50;;;3.20;;
28551;SDS011;15752;49.560;8.708;2023-05-23T10:30:32;3.30;;;3.00;;
28551;SDS011;15752;49.560;8.708;2023-05-23T10:33:01;3.38;;;3.08;;
28551;SDS011;15752;49.560;8.708;2023-05-23T10:35:35;6.65;;;3.10;;
28551;SDS011;15752;49.560;8.708;2023-05-23T10:38:19;2.80;;;2.60;;
28551;SDS011;15752;49.560;8.708;2023-05-23T10:40:57;3.30;;;3.00;;
28551;SDS011;15752;49.560;8.708;2023-05-23T10:43:39;4.65;;;3.55;;
28551;SDS011;15752;49.560;8.708;2023-05-23T10:46:13;3.58;;;3.28;;
28551;SDS011;15752;49.560;8.708;2023-05-23T10:48:42;3.28;;;2.97;;
28551;SDS011;15752;49.560;8.708;2023-05-23T10:51:11;3.60;;;3.30;;
28551;SDS011;15752;49.560;8.708;2023-05-23T10:53:42;3.50;;;3.00;;
28551;SDS011;15752;49.560;8.708;2023-05-23T10:56:18;4.28;;;3.13;;
28551;SDS011;15752;49.560;8.708;2023-05-23T10:58:51;3.20;;;2.92;;
28551;SDS011;15752;49.560;8.708;2023-05-23T11:01:23;3.13;;;2.85;;
28551;SDS011;15752;49.560;8.708;2023-05-23T11:03:53;4.57;;;3.22;;
28551;SDS011;15752;49.560;8.708;2023-05-23T11:06:29;3.03;;;2.72;;
28551;SDS011;15752;49.560;8.708;2023-05-23T11:09:03;3.50;;;3.20;;
28551;SDS011;15752;49.560;8.708;2023-05-23T11:14:31;2.95;;;2.65;;
28551;SDS011;15752;49.560;8.708;2023-05-23T11:17:31;2.80;;;2.60;;
28551;SDS011;15752;49.560;8.708;2023-05-23T11:20:03;4.68;;;2.75;;
28551;SDS011;15752;49.560;8.708;2023-05-23T11:22:34;2.47;;;2.28;;
28551;SDS011;15752;49.560;8.708;2023-05-23T11:25:05;3.78;;;2.70;;
28551;SDS011;15752;49.560;8.708;2023-05-23T11:27:36;2.75;;;2.55;;
28551;SDS011;15752;49.560;8.708;2023-05-23T11:30:07;2.58;;;2.17;;
28551;SDS011;15752;49.560;8.708;2023-05-23T11:32:41;2.50;;;2.30;;
28551;SDS011;15752;49.560;8.708;2023-05-23T11:35:17;2.72;;;2.53;;
28551;SDS011;15752;49.560;8.708;2023-05-23T11:37:47;2.58;;;2.40;;
28551;SDS011;15752;49.560;8.708;2023-05-23T11:40:26;2.30;;;2.10;;
28551;SDS011;15752;49.560;8.708;2023-05-23T11:42:57;2.78;;;2.45;;
28551;SDS011;15752;49.560;8.708;2023-05-23T11:45:26;2.60;;;2.40;;
28551;SDS011;15752;49.560;8.708;2023-05-23T11:47:56;2.42;;;2.22;;
28551;SDS011;15752;49.560;8.708;2023-05-23T11:50:25;2.88;;;2.67;;
28551;SDS011;15752;49.560;8.708;2023-05-23T11:52:54;2.80;;;2.60;;
28551;SDS011;15752;49.560;8.708;2023-05-23T11:55:23;2.80;;;2.60;;
28551;SDS011;15752;49.560;8.708;2023-05-23T11:57:54;3.20;;;2.90;;
28551;SDS011;15752;49.560;8.708;2023-05-23T12:00:23;3.92;;;2.95;;
28551;SDS011;15752;49.560;8.708;2023-05-23T12:02:52;2.90;;;2.67;;
28551;SDS011;15752;49.560;8.708;2023-05-23T12:05:22;3.75;;;2.65;;
28551;SDS011;15752;49.560;8.708;2023-05-23T12:07:50;2.95;;;2.65;;
28551;SDS011;15752;49.560;8.708;2023-05-23T12:10:19;3.53;;;2.90;;
28551;SDS011;15752;49.560;8.708;2023-05-23T12:12:50;2.90;;;2.70;;
28551;SDS011;15752;49.560;8.708;2023-05-23T12:15:18;2.88;;;2.40;;
28551;SDS011;15752;49.560;8.708;2023-05-23T12:17:53;2.95;;;2.67;;
28551;SDS011;15752;49.560;8.708;2023-05-23T12:20:24;3.20;;;2.60;;
28551;SDS011;15752;49.560;8.708;2023-05-23T12:22:53;2.78;;;2.58;;
28551;SDS011;15752;49.560;8.708;2023-05-23T12:25:23;5.47;;;3.17;;
28551;SDS011;15752;49.560;8.708;2023-05-23T12:27:52;3.50;;;3.13;;
28551;SDS011;15752;49.560;8.708;2023-05-23T12:30:21;4.80;;;3.40;;
28551;SDS011;15752;49.560;8.708;2023-05-23T12:32:50;3.70;;;3.40;;
28551;SDS011;15752;49.560;8.708;2023-05-23T12:35:19;3.65;;;3.28;;
28551;SDS011;15752;49.560;8.708;2023-05-23T12:37:49;3.92;;;3.60;;
28551;SDS011;15752;49.560;8.708;2023-05-23T12:40:20;4.85;;;4.13;;
28551;SDS011;15752;49.560;8.708;2023-05-23T12:42:49;4.22;;;3.72;;
28551;SDS011;15752;49.560;8.708;2023-05-23T12:45:20;4.75;;;4.35;;
28551;SDS011;15752;49.560;8.708;2023-05-23T12:47:50;4.57;;;4.18;;
28551;SDS011;15752;49.560;8.708;2023-05-23T12:50:19;6.13;;;3.95;;
28551;SDS011;15752;49.560;8.708;2023-05-23T12:52:50;4.68;;;4.20;;
28551;SDS011;15752;49.560;8.708;2023-05-23T12:55:18;4.15;;;3.72;;
28551;SDS011;15752;49.560;8.708;2023-05-23T12:57:47;4.72;;;4.22;;
28551;SDS011;15752;49.560;8.708;2023-05-23T13:00:16;5.20;;;4.70;;
28551;SDS011;15752;49.560;8.708;2023-05-23T13:02:46;6.25;;;4.40;;
28551;SDS011;15752;49.560;8.708;2023-05-23T13:05:16;5.28;;;4.70;;
28551;SDS011;15752;49.560;8.708;2023-05-23T13:07:44;5.10;;;4.43;;
28551;SDS011;15752;49.560;8.708;2023-05-23T13:10:15;5.22;;;4.70;;
28551;SDS011;15752;49.560;8.708;2023-05-23T13:12:44;7.25;;;5.43;;
28551;SDS011;15752;49.560;8.708;2023-05-23T13:15:13;6.03;;;4.95;;
28551;SDS011;15752;49.560;8.708;2023-05-23T13:17:42;4.82;;;4.25;;
28551;SDS011;15752;49.560;8.708;2023-05-23T13:20:15;8.50;;;5.63;;
28551;SDS011;15752;49.560;8.708;2023-05-23T13:22:44;5.35;;;4.85;;
28551;SDS011;15752;49.560;8.708;2023-05-23T13:25:12;5.53;;;4.53;;
28551;SDS011;15752;49.560;8.708;2023-05-23T13:27:42;5.75;;;4.35;;
28551;SDS011;15752;49.560;8.708;2023-05-23T13:30:14;5.47;;;4.38;;
28551;SDS011;15752;49.560;8.708;2023-05-23T13:32:42;5.93;;;4.82;;
28551;SDS011;15752;49.560;8.708;2023-05-23T13:35:11;4.88;;;4.38;;
28551;SDS011;15752;49.560;8.708;2023-05-23T13:37:40;6.43;;;4.53;;
28551;SDS011;15752;49.560;8.708;2023-05-23T13:40:11;4.75;;;4.35;;
28551;SDS011;15752;49.560;8.708;2023-05-23T13:42:46;5.78;;;4.18;;
28551;SDS011;15752;49.560;8.708;2023-05-23T13:45:16;5.68;;;5.00;;
28551;SDS011;15752;49.560;8.708;2023-05-23T13:47:45;4.68;;;4.18;;
28551;SDS011;15752;49.560;8.708;2023-05-23T13:50:14;5.97;;;4.47;;
28551;SDS011;15752;49.560;8.708;2023-05-23T13:52:43;5.30;;;4.80;;
28551;SDS011;15752;49.560;8.708;2023-05-23T13:55:14;5.30;;;4.80;;
28551;SDS011;15752;49.560;8.708;2023-05-23T13:57:45;4.90;;;4.40;;
28551;SDS011;15752;49.560;8.708;2023-05-23T14:00:13;4.88;;;4.30;;
28551;SDS011;15752;49.560;8.708;2023-05-23T14:02:42;5.72;;;4.00;;
28551;SDS011;15752;49.560;8.708;2023-05-23T14:05:11;4.35;;;3.95;;
28551;SDS011;15752;49.560;8.708;2023-05-23T14:07:41;4.07;;;3.55;;
28551;SDS011;15752;49.560;8.708;2023-05-23T14:10:12;3.53;;;3.22;;
28551;SDS011;15752;49.560;8.708;2023-05-23T14:12:44;4.07;;;3.67;;
28551;SDS011;15752;49.560;8.708;2023-05-23T14:15:13;3.50;;;3.20;;
28551;SDS011;15752;49.560;8.708;2023-05-23T14:17:43;5.70;;;3.40;;
28551;SDS011;15752;49.560;8.708;2023-05-23T14:20:12;3.33;;;3.03;;
28551;SDS011;15752;49.560;8.708;2023-05-23T14:22:40;3.95;;;2.63;;
28551;SDS011;15752;49.560;8.708;2023-05-23T14:25:09;2.95;;;2.65;;
28551;SDS011;15752;49.560;8.708;2023-05-23T14:27:37;2.30;;;2.10;;
28551;SDS011;15752;49.560;8.708;2023-05-23T14:30:08;3.15;;;2.00;;
28551;SDS011;15752;49.560;8.708;2023-05-23T14:32:38;2.70;;;2.05;;
28551;SDS011;15752;49.560;8.708;2023-05-23T14:35:08;2.25;;;1.75;;
28551;SDS011;15752;49.560;8.708;2023-05-23T14:37:38;1.92;;;1.73;;
28551;SDS011;15752;49.560;8.708;2023-05-23T14:40:07;1.98;;;1.80;;
28551;SDS011;15752;49.560;8.708;2023-05-23T14:42:36;5.85;;;1.98;;
28551;SDS011;15752;49.560;8.708;2023-05-23T14:45:05;2.63;;;1.70;;
28551;SDS011;15752;49.560;8.708;2023-05-23T14:47:36;2.10;;;1.85;;
28551;SDS011;15752;49.560;8.708;2023-05-23T14:50:05;1.60;;;1.50;;
28551;SDS011;15752;49.560;8.708;2023-05-23T14:52:35;2.30;;;2.10;;
28551;SDS011;15752;49.560;8.708;2023-05-23T14:55:04;3.72;;;2.10;;
28551;SDS011;15752;49.560;8.708;2023-05-23T14:57:33;2.20;;;2.00;;
28551;SDS011;15752;49.560;8.708;2023-05-23T15:00:02;4.22;;;1.98;;
28551;SDS011;15752;49.560;8.708;2023-05-23T15:02:35;2.35;;;2.15;;
28551;SDS011;15752;49.560;8.708;2023-05-23T15:05:04;4.20;;;2.20;;
28551;SDS011;15752;49.560;8.708;2023-05-23T15:07:34;2.78;;;2.40;;
28551;SDS011;15752;49.560;8.708;2023-05-23T15:10:04;2.60;;;2.33;;